Time;durP1;ratioP1;P1;durP2;ratioP2;P2;SDS_P1;SDS_P2;PMS_P1;PMS_P2;Temp;Humidity;BMP_temperature;BMP_pressure;BME280_temperature;BME280_humidity;BME280_pressure;Samples;Min_cycle;Max_cycle;Signal;HPM_P1;HPM_P2
2023/05/26 00:00:43;;;;;;;;;;;;;;;;;;5076648;28;19956;-73
2023/05/26 00:03:10;;;;;;;;;;;;;;;;;;5076613;28;20420;-73
2023/05/26 00:05:40;;;;;;;;;;;;;;;;;;5076942;28;19963;-73
2023/05/26 00:08:05;;;;;;;;;;;;;;;;;;5075055;28;20325;-74
2023/05/26 00:10:31;;;;;;;;;;;;;;;;;;5076806;28;20054;-72
2023/05/26 00:12:57;;;;;;;;;;;;;;;;;;5076102;28;19976;-73
2023/05/26 00:15:23;;;;;;;;;;;;;;;;;;5076148;28;19966;-72
2023/05/26 00:17:50;;;;;;;;;;;;;;;;;;5075250;28;19959;-74
2023/05/26 00:20:16;;;;;;;;;;;;;;;;;;5076095;28;19956;-74
2023/05/26 00:22:42;;;;;;;;;;;;;;;;;;5076262;28;20028;-71
2023/05/26 00:25:08;;;;;;;;;;;;;;;;;;5076239;28;19955;-70
2023/05/26 00:27:33;;;;;;;;;;;;;;;;;;5076477;28;19956;-71
2023/05/26 00:29:59;;;;;;;;;;;;;;;;;;5075872;28;19955;-74
2023/05/26 00:32:25;;;;;;;;;;;;;;;;;;5075778;28;19976;-73
2023/05/26 00:34:51;;;;;;;;;;;;;;;;;;5075981;28;19974;-72
2023/05/26 00:37:17;;;;;;;;;;;;;;;;;;5075688;28;19961;-72
2023/05/26 00:39:44;;;;;;;;;;;;;;;;;;5075654;28;20013;-72
2023/05/26 00:42:10;;;;;;;;;;;;;;;;;;5075596;28;20085;-73
2023/05/26 00:44:36;;;;;;;;;;;;;;;;;;5076101;28;19994;-74
2023/05/26 00:47:02;;;;;;;;;;;;;;;;;;5075528;28;19962;-73
2023/05/26 00:49:28;;;;;;;;;;;;;;;;;;5075754;28;19956;-74
2023/05/26 00:51:53;;;;;;;;;;;;;;;;;;5075701;28;20093;-72
2023/05/26 00:54:20;;;;;;;;;;;;;;;;;;5074059;28;20077;-73
2023/05/26 00:56:46;;;;;;;;;;;;;;;;;;5075945;28;19955;-74
2023/05/26 00:59:12;;;;;;;;;;;;;;;;;;5075574;28;19962;-72
2023/05/26 01:01:38;;;;;;;;;;;;;;;;;;5075226;28;20421;-74
2023/05/26 01:04:04;;;;;;;;;;;;;;;;;;5075237;28;19956;-74
2023/05/26 01:06:31;;;;;;;;;;;;;;;;;;5075744;28;19955;-72
2023/05/26 01:08:57;;;;;;;;;;;;;;;;;;5075135;28;20046;-73
2023/05/26 01:11:23;;;;;;;;;;;;;;;;;;5075309;28;20069;-74
2023/05/26 01:13:49;;;;;;;;;;;;;;;;;;5074883;28;19976;-73
2023/05/26 01:16:15;;;;;;;;;;;;;;;;;;5074969;28;20329;-72
2023/05/26 01:18:41;;;;;;;;;;;;;;;;;;5074867;28;19967;-74
2023/05/26 01:21:07;;;;;;;;;;;;;;;;;;5074892;28;19963;-74
2023/05/26 01:23:33;;;;;;;;;;;;;;;;;;5074866;28;19959;-74
2023/05/26 01:25:59;;;;;;;;;;;;;;;;;;5074797;28;20313;-74
2023/05/26 01:28:25;;;;;;;;;;;;;;;;;;5074707;28;20370;-74
2023/05/26 01:30:51;;;;;;;;;;;;;;;;;;5074683;28;20050;-73
2023/05/26 01:33:17;;;;;;;;;;;;;;;;;;5074748;28;20328;-73
2023/05/26 01:35:43;;;;;;;;;;;;;;;;;;5074884;28;19960;-73
2023/05/26 01:38:08;;;;;;;;;;;;;;;;;;5074541;28;19956;-73
2023/05/26 01:40:34;;;;;;;;;;;;;;;;;;5075036;28;19962;-73
2023/05/26 01:43:00;;;;;;;;;;;;;;;;;;5074536;28;20027;-73
2023/05/26 01:45:26;;;;;;;;;;;;;;;;;;5074406;28;19959;-73
2023/05/26 01:47:52;;;;;;;;;;;;;;;;;;5073104;28;20343;-72
2023/05/26 01:50:18;;;;;;;;;;;;;;;;;;5074853;28;19967;-74
2023/05/26 01:52:44;;;;;;;;;;;;;;;;;;5074187;28;19975;-73
2023/05/26 01:55:13;;;;;;;;;;;;;;;;;;5074853;28;19956;-73
2023/05/26 01:57:39;;;;;;;;;;;;;;;;;;5074164;28;19955;-73
2023/05/26 02:00:05;;;;;;;;;;;;;;;;;;5074383;28;19963;-74
2023/05/26 02:02:31;;;;;;;;;;;;;;;;;;5074151;28;20046;-74
2023/05/26 02:04:57;;;;;;;;;;;;;;;;;;5074055;28;20065;-74
2023/05/26 02:07:23;;;;;;;;;;;;;;;;;;5073974;28;19966;-73
2023/05/26 02:09:49;;;;;;;;;;;;;;;;;;5074001;28;20039;-74
2023/05/26 02:12:15;;;;;;;;;;;;;;;;;;5073848;28;20059;-74
2023/05/26 02:14:40;;;;;;;;;;;;;;;;;;5072614;28;19965;-73
2023/05/26 02:17:06;;;;;;;;;;;;;;;;;;5073881;28;19994;-74
2023/05/26 02:19:32;;;;;;;;;;;;;;;;;;5074141;28;19969;-74
2023/05/26 02:21:58;;;;;;;;;;;;;;;;;;5073821;28;19956;-73
2023/05/26 02:24:24;;;;;;;;;;;;;;;;;;5074056;28;19956;-72
2023/05/26 02:26:50;;;;;;;;;;;;;;;;;;5073729;28;20064;-72
2023/05/26 02:29:16;;;;;;;;;;;;;;;;;;5073733;28;19960;-73
2023/05/26 02:31:42;;;;;;;;;;;;;;;;;;5073961;28;20071;-72
2023/05/26 02:34:10;;;;;;;;;;;;;;;;;;5073542;28;19990;-72
2023/05/26 02:36:36;;;;;;;;;;;;;;;;;;5073685;28;19960;-73
2023/05/26 02:39:02;;;;;;;;;;;;;;;;;;5073826;28;19962;-72
2023/05/26 02:41:28;;;;;;;;;;;;;;;;;;5073049;28;20086;-75
2023/05/26 02:43:54;;;;;;;;;;;;;;;;;;5074354;28;19955;-73
2023/05/26 02:46:20;;;;;;;;;;;;;;;;;;5073831;28;19956;-73
2023/05/26 02:48:45;;;;;;;;;;;;;;;;;;5073866;28;19959;-73
2023/05/26 02:51:11;;;;;;;;;;;;;;;;;;5073499;28;20413;-73
2023/05/26 02:53:37;;;;;;;;;;;;;;;;;;5073429;28;19975;-72
2023/05/26 02:56:03;;;;;;;;;;;;;;;;;;5073715;28;20005;-73
2023/05/26 02:58:29;;;;;;;;;;;;;;;;;;5072208;28;19974;-74
2023/05/26 03:00:55;;;;;;;;;;;;;;;;;;5073418;28;19955;-74
2023/05/26 03:03:21;;;;;;;;;;;;;;;;;;5073379;28;19962;-73
2023/05/26 03:05:47;;;;;;;;;;;;;;;;;;5073394;28;19995;-73
2023/05/26 03:08:13;;;;;;;;;;;;;;;;;;5073613;28;20038;-73
2023/05/26 03:10:39;;;;;;;;;;;;;;;;;;5073611;28;20405;-74
2023/05/26 03:13:05;;;;;;;;;;;;;;;;;;5073522;28;20405;-74
2023/05/26 03:15:31;;;;;;;;;;;;;;;;;;5073603;28;19979;-72
2023/05/26 03:17:57;;;;;;;;;;;;;;;;;;5073275;28;20001;-73
2023/05/26 03:20:23;;;;;;;;;;;;;;;;;;5073227;28;19959;-74
2023/05/26 03:22:49;;;;;;;;;;;;;;;;;;5073729;28;20046;-73
2023/05/26 03:25:15;;;;;;;;;;;;;;;;;;5073167;28;19970;-74
2023/05/26 03:27:41;;;;;;;;;;;;;;;;;;5073453;28;20075;-73
2023/05/26 03:30:07;;;;;;;;;;;;;;;;;;5073119;28;20380;-73
2023/05/26 03:32:33;;;;;;;;;;;;;;;;;;5073085;28;19983;-72
2023/05/26 03:34:59;;;;;;;;;;;;;;;;;;5073039;28;19971;-74
2023/05/26 03:37:25;;;;;;;;;;;;;;;;;;5071799;28;20501;-74
2023/05/26 03:39:52;;;;;;;;;;;;;;;;;;5073273;28;19956;-71
2023/05/26 03:42:17;;;;;;;;;;;;;;;;;;5071465;28;20002;-70
2023/05/26 03:44:43;;;;;;;;;;;;;;;;;;5073528;28;19960;-70
2023/05/26 03:47:09;;;;;;;;;;;;;;;;;;5072939;28;19963;-70
2023/05/26 03:49:35;;;;;;;;;;;;;;;;;;5072950;28;20073;-72
2023/05/26 03:52:01;;;;;;;;;;;;;;;;;;5074234;28;20016;-72
2023/05/26 03:54:27;;;;;;;;;;;;;;;;;;5076782;28;20066;-70
2023/05/26 03:56:53;;;;;;;;;;;;;;;;;;5077023;28;19987;-72
2023/05/26 03:59:19;;;;;;;;;;;;;;;;;;5076709;28;19955;-71
2023/05/26 04:01:45;;;;;;;;;;;;;;;;;;5076698;28;19962;-70
2023/05/26 04:04:11;;;;;;;;;;;;;;;;;;5076337;28;19999;-72
2023/05/26 04:06:38;;;;;;;;;;;;;;;;;;5076565;28;19960;-72
2023/05/26 04:09:04;;;;;;;;;;;;;;;;;;5076331;28;19955;-72
2023/05/26 04:11:30;;;;;;;;;;;;;;;;;;5076777;28;20309;-70
2023/05/26 04:13:56;;;;;;;;;;;;;;;;;;5076149;28;19976;-71
2023/05/26 04:16:21;;;;;;;;;;;;;;;;;;5076139;28;19963;-71
2023/05/26 04:18:47;;;;;;;;;;;;;;;;;;5076644;28;19981;-72
2023/05/26 04:21:13;;;;;;;;;;;;;;;;;;5076029;28;20054;-72
2023/05/26 04:23:39;;;;;;;;;;;;;;;;;;5076264;28;20005;-70
2023/05/26 04:26:05;;;;;;;;;;;;;;;;;;5075985;28;19956;-72
2023/05/26 04:28:31;;;;;;;;;;;;;;;;;;5075904;28;20483;-74
2023/05/26 04:30:57;;;;;;;;;;;;;;;;;;5076187;28;19997;-73
2023/05/26 04:33:24;;;;;;;;;;;;;;;;;;5075689;28;20432;-73
2023/05/26 04:35:50;;;;;;;;;;;;;;;;;;5075811;28;19956;-74
2023/05/26 04:38:15;;;;;;;;;;;;;;;;;;5076043;28;19956;-73
2023/05/26 04:40:42;;;;;;;;;;;;;;;;;;5075973;28;20432;-72
2023/05/26 04:43:08;;;;;;;;;;;;;;;;;;5075823;28;20041;-73
2023/05/26 04:45:36;;;;;;;;;;;;;;;;;;5075627;28;20054;-74
2023/05/26 04:48:02;;;;;;;;;;;;;;;;;;5076182;28;20395;-73
2023/05/26 04:50:28;;;;;;;;;;;;;;;;;;5075530;28;20417;-73
2023/05/26 04:52:54;;;;;;;;;;;;;;;;;;5075435;28;19979;-72
2023/05/26 04:55:20;;;;;;;;;;;;;;;;;;5075477;28;20042;-74
2023/05/26 04:57:46;;;;;;;;;;;;;;;;;;5075421;28;19956;-72
2023/05/26 05:00:13;;;;;;;;;;;;;;;;;;5074047;28;20009;-73
2023/05/26 05:02:39;;;;;;;;;;;;;;;;;;5075005;28;19970;-73
2023/05/26 05:05:05;;;;;;;;;;;;;;;;;;5075272;28;19956;-73
2023/05/26 05:07:31;;;;;;;;;;;;;;;;;;5075128;28;19956;-73
2023/05/26 05:09:57;;;;;;;;;;;;;;;;;;5075407;28;19955;-72
2023/05/26 05:12:23;;;;;;;;;;;;;;;;;;5075001;28;19967;-74
2023/05/26 05:14:49;;;;;;;;;;;;;;;;;;5075328;28;19955;-73
2023/05/26 05:17:15;;;;;;;;;;;;;;;;;;5074951;28;19962;-73
2023/05/26 05:19:42;;;;;;;;;;;;;;;;;;5075297;28;19962;-74
2023/05/26 05:22:08;;;;;;;;;;;;;;;;;;5074937;28;19955;-73
2023/05/26 05:24:34;;;;;;;;;;;;;;;;;;5074789;28;19982;-73
2023/05/26 05:27:01;;;;;;;;;;;;;;;;;;5075097;28;20001;-73
2023/05/26 05:29:27;;;;;;;;;;;;;;;;;;5074819;28;20045;-72
2023/05/26 05:31:53;;;;;;;;;;;;;;;;;;5074957;28;20003;-72
2023/05/26 05:34:19;;;;;;;;;;;;;;;;;;5074472;28;20348;-73
2023/05/26 05:36:44;;;;;;;;;;;;;;;;;;5074853;28;20001;-72
2023/05/26 05:39:10;;;;;;;;;;;;;;;;;;5074525;28;19955;-74
2023/05/26 05:41:36;;;;;;;;;;;;;;;;;;5074297;28;19992;-70
2023/05/26 05:44:02;;;;;;;;;;;;;;;;;;5075226;28;19956;-71
2023/05/26 05:46:28;;;;;;;;;;;;;;;;;;5074383;28;20302;-72
2023/05/26 05:48:54;;;;;;;;;;;;;;;;;;5074933;28;19970;-71
2023/05/26 05:51:20;;;;;;;;;;;;;;;;;;5074303;28;20010;-71
2023/05/26 05:53:46;;;;;;;;;;;;;;;;;;5074454;28;19982;-71
2023/05/26 05:56:12;;;;;;;;;;;;;;;;;;5074189;28;19956;-72
2023/05/26 05:58:38;;;;;;;;;;;;;;;;;;5074182;28;19982;-71
2023/05/26 06:01:04;;;;;;;;;;;;;;;;;;5074596;28;19973;-70
2023/05/26 06:03:30;;;;;;;;;;;;;;;;;;5074078;28;19970;-72
2023/05/26 06:05:56;;;;;;;;;;;;;;;;;;5074043;28;20481;-71
2023/05/26 06:08:21;;;;;;;;;;;;;;;;;;5074012;28;19956;-71
2023/05/26 06:10:47;;;;;;;;;;;;;;;;;;5073956;28;19955;-71
2023/05/26 06:13:13;;;;;;;;;;;;;;;;;;5074077;28;20029;-72
2023/05/26 06:15:39;;;;;;;;;;;;;;;;;;5073061;28;20413;-72
2023/05/26 06:18:05;;;;;;;;;;;;;;;;;;5073677;28;19955;-71
2023/05/26 06:20:31;;;;;;;;;;;;;;;;;;5074219;28;19962;-71
2023/05/26 06:22:57;;;;;;;;;;;;;;;;;;5073610;28;20008;-72
2023/05/26 06:25:23;;;;;;;;;;;;;;;;;;5074153;28;19959;-71
2023/05/26 06:27:49;;;;;;;;;;;;;;;;;;5073568;28;19999;-71
2023/05/26 06:30:15;;;;;;;;;;;;;;;;;;5073626;28;19961;-71
2023/05/26 06:32:41;;;;;;;;;;;;;;;;;;5073577;28;20399;-71
2023/05/26 06:35:07;;;;;;;;;;;;;;;;;;5074105;28;19978;-71
2023/05/26 06:37:32;;;;;;;;;;;;;;;;;;5073490;28;20417;-72
2023/05/26 06:39:59;;;;;;;;;;;;;;;;;;5073511;28;19956;-72
2023/05/26 06:42:26;;;;;;;;;;;;;;;;;;5073401;28;20033;-72
2023/05/26 06:44:52;;;;;;;;;;;;;;;;;;5074341;28;19960;-72
2023/05/26 06:47:23;;;;;;;;;;;;;;;;;;5073055;28;20258;-72
2023/05/26 06:49:49;;;;;;;;;;;;;;;;;;5073565;28;20418;-72
2023/05/26 06:52:15;;;;;;;;;;;;;;;;;;5073414;28;19962;-72
2023/05/26 06:54:41;;;;;;;;;;;;;;;;;;5073470;28;19959;-72
2023/05/26 06:57:06;;;;;;;;;;;;;;;;;;5074022;28;19956;-71
2023/05/26 06:59:33;;;;;;;;;;;;;;;;;;5073749;28;19963;-70
2023/05/26 07:01:58;;;;;;;;;;;;;;;;;;5074130;28;19960;-71
2023/05/26 07:04:24;;;;;;;;;;;;;;;;;;5073671;28;20005;-71
2023/05/26 07:06:50;;;;;;;;;;;;;;;;;;5073675;28;20378;-72
2023/05/26 07:09:16;;;;;;;;;;;;;;;;;;5073387;28;19956;-72
2023/05/26 07:11:42;;;;;;;;;;;;;;;;;;5073930;28;19959;-72
2023/05/26 07:14:08;;;;;;;;;;;;;;;;;;5073535;28;20076;-72
2023/05/26 07:16:34;;;;;;;;;;;;;;;;;;5073227;28;20412;-70
2023/05/26 07:19:00;;;;;;;;;;;;;;;;;;5073529;28;19956;-64
2023/05/26 07:21:27;;;;;;;;;;;;;;;;;;5073197;28;20308;-64
2023/05/26 07:23:53;;;;;;;;;;;;;;;;;;5073226;28;19965;-65
2023/05/26 07:26:19;;;;;;;;;;;;;;;;;;5074983;28;19955;-64
2023/05/26 07:28:46;;;;;;;;;;;;;;;;;;5077106;28;20041;-63
2023/05/26 07:31:12;;;;;;;;;;;;;;;;;;5076943;28;19960;-62
2023/05/26 07:33:38;;;;;;;;;;;;;;;;;;5076783;28;19990;-64
2023/05/26 07:36:04;;;;;;;;;;;;;;;;;;5076944;28;20002;-63
2023/05/26 07:38:29;;;;;;;;;;;;;;;;;;5077112;28;20471;-64
2023/05/26 07:40:55;;;;;;;;;;;;;;;;;;5077290;28;19959;-63
2023/05/26 07:43:21;;;;;;;;;;;;;;;;;;5077034;28;19985;-64
2023/05/26 07:45:47;;;;;;;;;;;;;;;;;;5077408;28;20319;-64
2023/05/26 07:48:14;;;;;;;;;;;;;;;;;;5076651;28;19965;-64
2023/05/26 07:50:40;;;;;;;;;;;;;;;;;;5076971;28;19959;-63
2023/05/26 07:53:06;;;;;;;;;;;;;;;;;;5076491;28;19975;-64
2023/05/26 07:55:32;;;;;;;;;;;;;;;;;;5076818;28;20013;-62
2023/05/26 07:57:58;;;;;;;;;;;;;;;;;;5076487;28;19962;-63
2023/05/26 08:00:24;;;;;;;;;;;;;;;;;;5076445;28;19995;-62
2023/05/26 08:02:50;;;;;;;;;;;;;;;;;;5076664;28;19963;-62
2023/05/26 08:05:16;;;;;;;;;;;;;;;;;;5076622;28;19978;-62
2023/05/26 08:07:42;;;;;;;;;;;;;;;;;;5076595;28;19960;-62
2023/05/26 08:10:08;;;;;;;;;;;;;;;;;;5076822;28;20053;-62
2023/05/26 08:12:34;;;;;;;;;;;;;;;;;;5076184;28;19959;-61
2023/05/26 08:15:00;;;;;;;;;;;;;;;;;;5077316;28;19960;-62
2023/05/26 08:17:26;;;;;;;;;;;;;;;;;;5076398;28;19982;-61
2023/05/26 08:19:52;;;;;;;;;;;;;;;;;;5076975;28;19960;-61
2023/05/26 08:22:17;;;;;;;;;;;;;;;;;;5076085;28;19956;-62
2023/05/26 08:24:43;;;;;;;;;;;;;;;;;;5076593;28;20449;-63
2023/05/26 08:27:09;;;;;;;;;;;;;;;;;;5076298;28;20006;-62
2023/05/26 08:29:35;;;;;;;;;;;;;;;;;;5075961;28;20005;-62
2023/05/26 08:32:01;;;;;;;;;;;;;;;;;;5075912;28;19955;-62
2023/05/26 08:34:27;;;;;;;;;;;;;;;;;;5075960;28;19983;-61
2023/05/26 08:36:53;;;;;;;;;;;;;;;;;;5076003;28;19955;-62
2023/05/26 08:39:19;;;;;;;;;;;;;;;;;;5074873;28;19965;-61
2023/05/26 08:41:45;;;;;;;;;;;;;;;;;;5075920;28;20095;-62
2023/05/26 08:44:11;;;;;;;;;;;;;;;;;;5076139;28;19956;-62
2023/05/26 08:46:37;;;;;;;;;;;;;;;;;;5075724;28;20028;-61
2023/05/26 08:49:02;;;;;;;;;;;;;;;;;;5075080;28;20484;-65
2023/05/26 08:51:28;;;;;;;;;;;;;;;;;;5075268;28;20314;-62
2023/05/26 08:53:54;;;;;;;;;;;;;;;;;;5075160;28;20059;-62
2023/05/26 08:56:21;;;;;;;;;;;;;;;;;;5075243;28;20315;-62
2023/05/26 08:58:46;;;;;;;;;;;;;;;;;;5075422;28;20378;-62
2023/05/26 09:01:12;;;;;;;;;;;;;;;;;;5075205;28;19959;-63
2023/05/26 09:03:38;;;;;;;;;;;;;;;;;;5075344;28;19999;-62
2023/05/26 09:06:04;;;;;;;;;;;;;;;;;;5075552;28;19955;-66
2023/05/26 09:08:31;;;;;;;;;;;;;;;;;;5075462;28;19961;-64
2023/05/26 09:10:57;;;;;;;;;;;;;;;;;;5075466;28;19954;-64
2023/05/26 09:13:23;;;;;;;;;;;;;;;;;;5075023;28;20140;-65
2023/05/26 09:15:49;;;;;;;;;;;;;;;;;;5075037;28;19954;-64
2023/05/26 09:18:15;;;;;;;;;;;;;;;;;;5075262;28;19958;-65
2023/05/26 09:20:41;;;;;;;;;;;;;;;;;;5074945;28;19954;-65
2023/05/26 09:23:06;;;;;;;;;;;;;;;;;;5074864;28;19963;-65
2023/05/26 09:25:32;;;;;;;;;;;;;;;;;;5075424;28;20435;-65
2023/05/26 09:27:58;;;;;;;;;;;;;;;;;;5075060;28;20003;-65
2023/05/26 09:30:24;;;;;;;;;;;;;;;;;;5074758;28;20408;-65
2023/05/26 09:32:50;;;;;;;;;;;;;;;;;;5074662;28;19975;-65
2023/05/26 09:35:16;;;;;;;;;;;;;;;;;;5074571;28;19971;-64
2023/05/26 09:37:42;;;;;;;;;;;;;;;;;;5075112;28;20409;-65
2023/05/26 09:40:08;;;;;;;;;;;;;;;;;;5074847;28;20004;-65
2023/05/26 09:42:34;;;;;;;;;;;;;;;;;;5074383;28;20006;-64
2023/05/26 09:45:00;;;;;;;;;;;;;;;;;;5075219;28;19954;-64
2023/05/26 09:47:26;;;;;;;;;;;;;;;;;;5074391;28;20002;-65
2023/05/26 09:49:52;;;;;;;;;;;;;;;;;;5073686;28;19962;-65
2023/05/26 09:52:18;;;;;;;;;;;;;;;;;;5074639;28;19955;-64
2023/05/26 09:54:43;;;;;;;;;;;;;;;;;;5074755;28;19989;-64
2023/05/26 09:57:14;;;;;;;;;;;;;;;;;;5074202;28;19955;-65
2023/05/26 09:59:40;;;;;;;;;;;;;;;;;;5074466;28;19959;-65
2023/05/26 10:02:06;;;;;;;;;;;;;;;;;;5074162;28;19963;-65
2023/05/26 10:04:31;;;;;;;;;;;;;;;;;;5074117;28;19955;-65
2023/05/26 10:06:58;;;;;;;;;;;;;;;;;;5074587;28;20042;-64
2023/05/26 10:09:24;;;;;;;;;;;;;;;;;;5074302;28;19982;-65
2023/05/26 10:11:50;;;;;;;;;;;;;;;;;;5074297;28;19967;-65
2023/05/26 10:14:16;;;;;;;;;;;;;;;;;;5074150;28;19974;-65
2023/05/26 10:16:42;;;;;;;;;;;;;;;;;;5073889;28;20028;-65
2023/05/26 10:19:09;;;;;;;;;;;;;;;;;;5073919;28;19955;-64
2023/05/26 10:21:35;;;;;;;;;;;;;;;;;;5074239;28;19962;-65
2023/05/26 10:24:01;;;;;;;;;;;;;;;;;;5074127;28;19963;-65
2023/05/26 10:26:27;;;;;;;;;;;;;;;;;;5073802;28;20022;-65
2023/05/26 10:28:53;;;;;;;;;;;;;;;;;;5073758;28;19956;-64
2023/05/26 10:31:18;;;;;;;;;;;;;;;;;;5074089;28;19955;-64
2023/05/26 10:33:44;;;;;;;;;;;;;;;;;;5073557;28;20078;-65
2023/05/26 10:36:10;;;;;;;;;;;;;;;;;;5074270;28;20415;-65
2023/05/26 10:38:37;;;;;;;;;;;;;;;;;;5073911;28;19963;-64
2023/05/26 10:41:03;;;;;;;;;;;;;;;;;;5073733;28;19960;-65
2023/05/26 10:43:29;;;;;;;;;;;;;;;;;;5073922;28;20009;-64
2023/05/26 10:45:55;;;;;;;;;;;;;;;;;;5074074;28;19995;-64
2023/05/26 10:48:21;;;;;;;;;;;;;;;;;;5073899;28;19956;-65
2023/05/26 10:50:47;;;;;;;;;;;;;;;;;;5073603;28;19956;-65
2023/05/26 10:53:14;;;;;;;;;;;;;;;;;;5073699;28;19987;-65
2023/05/26 10:55:40;;;;;;;;;;;;;;;;;;5073810;28;19963;-64
2023/05/26 10:58:06;;;;;;;;;;;;;;;;;;5073475;28;19956;-65
2023/05/26 11:00:32;;;;;;;;;;;;;;;;;;5073822;28;19956;-64
2023/05/26 11:02:57;;;;;;;;;;;;;;;;;;5077574;28;20426;-65
2023/05/26 11:05:23;;;;;;;;;;;;;;;;;;5077549;28;20009;-64
2023/05/26 11:07:49;;;;;;;;;;;;;;;;;;5078059;28;20391;-64
2023/05/26 11:10:15;;;;;;;;;;;;;;;;;;5077761;28;19956;-64
2023/05/26 11:12:41;;;;;;;;;;;;;;;;;;5077378;28;20039;-64
2023/05/26 11:15:07;;;;;;;;;;;;;;;;;;5077668;28;19994;-64
2023/05/26 11:17:33;;;;;;;;;;;;;;;;;;5077582;28;19966;-64
2023/05/26 11:19:59;;;;;;;;;;;;;;;;;;5077302;28;19962;-65
2023/05/26 11:22:25;;;;;;;;;;;;;;;;;;5077149;28;20432;-65
2023/05/26 11:24:52;;;;;;;;;;;;;;;;;;5077545;28;20374;-65
2023/05/26 11:27:18;;;;;;;;;;;;;;;;;;5077714;28;19956;-65
2023/05/26 11:29:44;;;;;;;;;;;;;;;;;;5077054;28;20007;-65
2023/05/26 11:32:10;;;;;;;;;;;;;;;;;;5076996;28;19955;-64
2023/05/26 11:34:36;;;;;;;;;;;;;;;;;;5076812;28;20326;-65
2023/05/26 11:37:02;;;;;;;;;;;;;;;;;;5076931;28;19955;-64
2023/05/26 11:39:28;;;;;;;;;;;;;;;;;;5076777;28;20431;-64
2023/05/26 11:41:53;;;;;;;;;;;;;;;;;;5076777;28;20002;-65
2023/05/26 11:44:19;;;;;;;;;;;;;;;;;;5078063;28;20405;-65
2023/05/26 11:46:46;;;;;;;;;;;;;;;;;;5076997;28;19990;-65
2023/05/26 11:49:12;;;;;;;;;;;;;;;;;;5076751;28;20469;-64
2023/05/26 11:51:38;;;;;;;;;;;;;;;;;;5076903;28;19966;-65
2023/05/26 11:54:08;;;;;;;;;;;;;;;;;;5076768;28;20073;-65
2023/05/26 11:56:34;;;;;;;;;;;;;;;;;;5077169;28;20324;-65
2023/05/26 11:59:00;;;;;;;;;;;;;;;;;;5076564;28;20324;-64
2023/05/26 12:01:26;;;;;;;;;;;;;;;;;;5076753;28;19959;-65
2023/05/26 12:03:52;;;;;;;;;;;;;;;;;;5076996;28;20390;-64
2023/05/26 12:06:18;;;;;;;;;;;;;;;;;;5076641;28;20372;-65
2023/05/26 12:08:44;;;;;;;;;;;;;;;;;;5076351;28;19960;-64
2023/05/26 12:11:10;;;;;;;;;;;;;;;;;;5076606;28;19977;-64
2023/05/26 12:13:36;;;;;;;;;;;;;;;;;;5075342;28;20444;-64
2023/05/26 12:16:02;;;;;;;;;;;;;;;;;;5076269;28;19956;-65
2023/05/26 12:18:27;;;;;;;;;;;;;;;;;;5076354;28;20409;-65
2023/05/26 12:20:53;;;;;;;;;;;;;;;;;;5076087;28;19986;-64
2023/05/26 12:23:19;;;;;;;;;;;;;;;;;;5075952;28;20386;-64
2023/05/26 12:25:45;;;;;;;;;;;;;;;;;;5076323;28;19955;-64
2023/05/26 12:28:12;;;;;;;;;;;;;;;;;;5075984;28;20038;-64
2023/05/26 12:30:38;;;;;;;;;;;;;;;;;;5075290;28;19963;-64
2023/05/26 12:33:04;;;;;;;;;;;;;;;;;;5075770;28;19979;-65
2023/05/26 12:35:30;;;;;;;;;;;;;;;;;;5076136;28;20325;-64
2023/05/26 12:37:57;;;;;;;;;;;;;;;;;;5075838;28;19956;-65
2023/05/26 12:40:23;;;;;;;;;;;;;;;;;;5076137;28;19959;-65
2023/05/26 12:42:49;;;;;;;;;;;;;;;;;;5076062;28;19991;-64
2023/05/26 12:45:15;;;;;;;;;;;;;;;;;;5076159;28;20433;-65
2023/05/26 12:47:41;;;;;;;;;;;;;;;;;;5076193;28;19999;-64
2023/05/26 12:50:07;;;;;;;;;;;;;;;;;;5075862;28;19962;-64
2023/05/26 12:52:33;;;;;;;;;;;;;;;;;;5075749;28;19962;-65
2023/05/26 12:54:59;;;;;;;;;;;;;;;;;;5075523;28;19955;-64
2023/05/26 12:57:25;;;;;;;;;;;;;;;;;;5074206;28;20378;-64
2023/05/26 12:59:52;;;;;;;;;;;;;;;;;;5076038;28;20001;-65
2023/05/26 13:02:18;;;;;;;;;;;;;;;;;;5075696;28;20013;-64
2023/05/26 13:04:44;;;;;;;;;;;;;;;;;;5075553;28;20375;-65
2023/05/26 13:07:10;;;;;;;;;;;;;;;;;;5075242;28;19978;-64
2023/05/26 13:09:36;;;;;;;;;;;;;;;;;;5075516;28;19956;-65
2023/05/26 13:12:02;;;;;;;;;;;;;;;;;;5075179;28;20038;-65
2023/05/26 13:14:28;;;;;;;;;;;;;;;;;;5075059;28;19982;-64
2023/05/26 13:16:54;;;;;;;;;;;;;;;;;;5075288;28;19967;-64
2023/05/26 13:19:20;;;;;;;;;;;;;;;;;;5075041;28;20036;-65
2023/05/26 13:21:46;;;;;;;;;;;;;;;;;;5074950;28;20420;-65
2023/05/26 13:24:12;;;;;;;;;;;;;;;;;;5074651;28;19954;-64
2023/05/26 13:26:38;;;;;;;;;;;;;;;;;;5073568;28;20009;-64
2023/05/26 13:29:03;;;;;;;;;;;;;;;;;;5075341;28;19959;-65
2023/05/26 13:31:29;;;;;;;;;;;;;;;;;;5075059;28;20046;-64
2023/05/26 13:33:55;;;;;;;;;;;;;;;;;;5074561;28;19989;-65
2023/05/26 13:36:22;;;;;;;;;;;;;;;;;;5074940;28;19956;-64
2023/05/26 13:38:48;;;;;;;;;;;;;;;;;;5074660;28;20054;-64
2023/05/26 13:41:16;;;;;;;;;;;;;;;;;;5074630;28;20002;-65
2023/05/26 13:43:42;;;;;;;;;;;;;;;;;;5074859;28;19959;-64
2023/05/26 13:46:08;;;;;;;;;;;;;;;;;;5075005;28;19955;-65
2023/05/26 13:48:34;;;;;;;;;;;;;;;;;;5074660;28;19965;-64
2023/05/26 13:51:01;;;;;;;;;;;;;;;;;;5074390;28;19954;-65
2023/05/26 13:53:27;;;;;;;;;;;;;;;;;;5074514;28;19976;-64
2023/05/26 13:55:53;;;;;;;;;;;;;;;;;;5074264;28;19963;-63
2023/05/26 13:58:19;;;;;;;;;;;;;;;;;;5074549;28;19962;-65
2023/05/26 14:00:45;;;;;;;;;;;;;;;;;;5074167;28;20038;-64
2023/05/26 14:03:11;;;;;;;;;;;;;;;;;;5074417;28;19960;-66
2023/05/26 14:05:37;;;;;;;;;;;;;;;;;;5074890;28;20469;-65
2023/05/26 14:08:05;;;;;;;;;;;;;;;;;;5073991;28;19954;-65
2023/05/26 14:10:31;;;;;;;;;;;;;;;;;;5074296;28;19978;-64
2023/05/26 14:12:57;;;;;;;;;;;;;;;;;;5073843;28;20033;-64
2023/05/26 14:15:23;;;;;;;;;;;;;;;;;;5074247;28;19954;-65
2023/05/26 14:17:49;;;;;;;;;;;;;;;;;;5074237;28;19954;-64
2023/05/26 14:20:15;;;;;;;;;;;;;;;;;;5073896;28;19960;-64
2023/05/26 14:22:40;;;;;;;;;;;;;;;;;;5073856;28;20053;-64
2023/05/26 14:25:06;;;;;;;;;;;;;;;;;;5074130;28;19956;-65
2023/05/26 14:27:32;;;;;;;;;;;;;;;;;;5074081;28;19959;-65
2023/05/26 14:29:59;;;;;;;;;;;;;;;;;;5074377;28;19958;-64
2023/05/26 14:32:25;;;;;;;;;;;;;;;;;;5074095;28;19956;-64
2023/05/26 14:34:51;;;;;;;;;;;;;;;;;;5073493;28;20066;-64
2023/05/26 14:37:17;;;;;;;;;;;;;;;;;;5073480;28;20009;-64
2023/05/26 14:39:43;;;;;;;;;;;;;;;;;;5073537;28;19956;-65
2023/05/26 14:42:09;;;;;;;;;;;;;;;;;;5073527;28;19998;-64
2023/05/26 14:44:35;;;;;;;;;;;;;;;;;;5074071;28;19984;-65
2023/05/26 14:47:01;;;;;;;;;;;;;;;;;;5073587;28;20504;-64
2023/05/26 14:49:26;;;;;;;;;;;;;;;;;;5073433;28;19959;-64
2023/05/26 14:51:52;;;;;;;;;;;;;;;;;;5073541;28;20325;-65
2023/05/26 14:54:18;;;;;;;;;;;;;;;;;;5073705;28;19982;-64
2023/05/26 14:56:44;;;;;;;;;;;;;;;;;;5073453;28;19959;-64
2023/05/26 14:59:10;;;;;;;;;;;;;;;;;;5073433;28;19955;-65
2023/05/26 15:01:36;;;;;;;;;;;;;;;;;;5073471;28;20344;-65
2023/05/26 15:04:02;;;;;;;;;;;;;;;;;;5073557;28;19956;-64
2023/05/26 15:06:30;;;;;;;;;;;;;;;;;;5073530;28;20416;-64
2023/05/26 15:08:56;;;;;;;;;;;;;;;;;;5073249;28;20404;-65
2023/05/26 15:11:22;;;;;;;;;;;;;;;;;;5073556;28;19960;-65
2023/05/26 15:13:48;;;;;;;;;;;;;;;;;;5073507;28;20070;-64
2023/05/26 15:16:14;;;;;;;;;;;;;;;;;;5073297;28;20424;-65
2023/05/26 15:18:40;;;;;;;;;;;;;;;;;;5073575;28;19956;-65
2023/05/26 15:21:06;;;;;;;;;;;;;;;;;;5073532;28;19960;-64
2023/05/26 15:23:32;;;;;;;;;;;;;;;;;;5073505;28;20001;-66
2023/05/26 15:25:58;;;;;;;;;;;;;;;;;;5073179;28;19962;-65
2023/05/26 15:28:26;;;;;;;;;;;;;;;;;;5073707;28;20416;-65
2023/05/26 15:30:52;;;;;;;;;;;;;;;;;;5073386;28;19955;-65
2023/05/26 15:33:18;;;;;;;;;;;;;;;;;;5073268;28;19975;-64
2023/05/26 15:35:44;;;;;;;;;;;;;;;;;;5073395;28;20014;-65
2023/05/26 15:38:10;;;;;;;;;;;;;;;;;;5073104;28;19999;-64
2023/05/26 15:40:36;;;;;;;;;;;;;;;;;;5073141;28;19962;-64
2023/05/26 15:43:02;;;;;;;;;;;;;;;;;;5072876;28;19992;-64
2023/05/26 15:45:28;;;;;;;;;;;;;;;;;;5073544;28;20009;-64
2023/05/26 15:47:54;;;;;;;;;;;;;;;;;;5075378;28;20017;-64
2023/05/26 15:50:20;;;;;;;;;;;;;;;;;;5076903;28;19960;-65
2023/05/26 15:52:46;;;;;;;;;;;;;;;;;;5076511;28;19962;-64
2023/05/26 15:55:11;;;;;;;;;;;;;;;;;;5076590;28;20482;-64
2023/05/26 15:57:37;;;;;;;;;;;;;;;;;;5076548;28;19956;-65
2023/05/26 16:00:03;;;;;;;;;;;;;;;;;;5076491;28;20338;-65
2023/05/26 16:02:29;;;;;;;;;;;;;;;;;;5076522;28;20046;-65
2023/05/26 16:04:55;;;;;;;;;;;;;;;;;;5076676;28;19999;-65
2023/05/26 16:07:21;;;;;;;;;;;;;;;;;;5076417;28;20462;-65
2023/05/26 16:09:47;;;;;;;;;;;;;;;;;;5076320;28;19955;-65
2023/05/26 16:12:14;;;;;;;;;;;;;;;;;;5076158;28;20333;-65
2023/05/26 16:14:40;;;;;;;;;;;;;;;;;;5076229;28;20044;-64
2023/05/26 16:17:05;;;;;;;;;;;;;;;;;;5076509;28;19955;-65
2023/05/26 16:19:31;;;;;;;;;;;;;;;;;;5076410;28;19962;-64
2023/05/26 16:21:57;;;;;;;;;;;;;;;;;;5076157;28;19991;-65
2023/05/26 16:24:28;;;;;;;;;;;;;;;;;;5076631;28;19962;-65
2023/05/26 16:26:54;;;;;;;;;;;;;;;;;;5075119;28;19999;-65
2023/05/26 16:29:21;;;;;;;;;;;;;;;;;;5076340;28;19955;-65
2023/05/26 16:31:47;;;;;;;;;;;;;;;;;;5076059;28;19962;-64
2023/05/26 16:34:13;;;;;;;;;;;;;;;;;;5075761;28;19983;-65
2023/05/26 16:36:39;;;;;;;;;;;;;;;;;;5075878;28;19956;-65